Faruk Kaan — V7IX2 — position and weather

sailwx.info

Track history (hours):
 
Tides and Currents Weather Stations Pressure Air Temp Water Temp Dewpoint Dewpoint Depression Visibility Wind Speed Wind Dir Waves Ship Positions

Faruk Kaan

Last reported at 2017-Nov-23 23:52 UTC. Time now 2017-Nov-24 00:18 UTC.
Position N 40°06' E 002°05'.

Length 126 m; draft 6 m.

Type: Ship. MMSI: 538002449.

Date/timePositionNaut miles runAvg speedWind from/ knotsBaromVisibWave heightAir tempDewpointWater temp
2017-Nov-23 23:52N 40°06' E 002°05'15 9.9
2017-Nov-23 22:23N 39°51' E 002°04'710.1
2017-Nov-23 21:41N 39°44' E 002°04'710.2
2017-Nov-23 20:59N 39°37' E 002°02'22 9.8
2017-Nov-23 18:43N 39°15' E 002°09'210.0
2017-Nov-23 18:30N 39°14' E 002°10'5 9.7
2017-Nov-23 18:00N 39°09' E 002°13'5 9.8
2017-Nov-23 17:30N 39°04' E 002°14'7 9.4
2017-Nov-23 16:47N 38°58' E 002°17'3 9.0
2017-Nov-23 16:27N 38°55' E 002°17'4 9.1
2017-Nov-23 15:59N 38°51' E 002°19'510.4
2017-Nov-23 15:31N 38°46' E 002°20'510.2
2017-Nov-23 15:00N 38°41' E 002°21'710.3
2017-Nov-23 14:19N 38°34' E 002°24'310.2
2017-Nov-23 13:59N 38°31' E 002°25'610.2
2017-Nov-23 13:24N 38°25' E 002°28'510.3
2017-Nov-23 12:57N 38°21' E 002°30'1210.3
2017-Nov-23 11:44N 38°09' E 002°34'410.1
2017-Nov-23 11:20N 38°05' E 002°35'510.0
2017-Nov-23 10:51N 38°01' E 002°38'2410.2
2017-Nov-23 08:28N 37°37' E 002°46'710.4
2017-Nov-23 07:50N 37°31' E 002°48'810.3
2017-Nov-23 07:06N 37°24' E 002°52'110.4
2017-Nov-23 06:59N 37°23' E 002°53'510.5
2017-Nov-23 06:30N 37°18' E 002°55'2710.4
2017-Nov-23 03:53N 36°52' E 003°06'  
2017-Nov-18 11:14N 40°55' E 001°59'710.8
2017-Nov-18 10:36N 41°01' E 002°02'110.8
2017-Nov-18 10:30N 41°02' E 002°03'611.0
2017-Nov-18 10:00N 41°07' E 002°05'12 0.3
2017-Nov-17 00:01N 41°18' E 002°11'0 5.1
2017-Nov-17 00:00N 41°18' E 002°11'0 0.0
2017-Nov-16 07:29N 41°18' E 002°11'3 5.7
2017-Nov-16 06:54N 41°15' E 002°10'3 6.6
2017-Nov-16 06:25N 41°13' E 002°08'4 9.0
2017-Nov-16 06:00N 41°09' E 002°06'5 9.2
2017-Nov-16 05:30N 41°05' E 002°04'5 9.4
2017-Nov-16 04:58N 40°60' E 002°02'7 9.4
2017-Nov-16 04:15N 40°54' E 001°59'  
Track history (hours):
 
Tides and Currents Weather Stations Pressure Air Temp Water Temp Dewpoint Dewpoint Depression Visibility Wind Speed Wind Dir Waves Ship Positions

Faruk Kaan

Last reported at 2017-Nov-23 23:52 UTC. Time now 2017-Nov-24 00:18 UTC.
Position N 40°06' E 002°05'.

Length 126 m; draft 6 m.

Type: Ship. MMSI: 538002449.

Date/timePositionNaut miles runAvg speedWind from/ knotsBaromVisibWave heightAir tempDewpointWater temp
2017-Nov-23 23:52N 40°06' E 002°05'15 9.9
2017-Nov-23 22:23N 39°51' E 002°04'710.1
2017-Nov-23 21:41N 39°44' E 002°04'710.2
2017-Nov-23 20:59N 39°37' E 002°02'22 9.8
2017-Nov-23 18:43N 39°15' E 002°09'210.0
2017-Nov-23 18:30N 39°14' E 002°10'5 9.7
2017-Nov-23 18:00N 39°09' E 002°13'5 9.8
2017-Nov-23 17:30N 39°04' E 002°14'7 9.4
2017-Nov-23 16:47N 38°58' E 002°17'3 9.0
2017-Nov-23 16:27N 38°55' E 002°17'4 9.1
2017-Nov-23 15:59N 38°51' E 002°19'510.4
2017-Nov-23 15:31N 38°46' E 002°20'510.2
2017-Nov-23 15:00N 38°41' E 002°21'710.3
2017-Nov-23 14:19N 38°34' E 002°24'310.2
2017-Nov-23 13:59N 38°31' E 002°25'610.2
2017-Nov-23 13:24N 38°25' E 002°28'510.3
2017-Nov-23 12:57N 38°21' E 002°30'1210.3
2017-Nov-23 11:44N 38°09' E 002°34'410.1
2017-Nov-23 11:20N 38°05' E 002°35'510.0
2017-Nov-23 10:51N 38°01' E 002°38'2410.2
2017-Nov-23 08:28N 37°37' E 002°46'710.4
2017-Nov-23 07:50N 37°31' E 002°48'810.3
2017-Nov-23 07:06N 37°24' E 002°52'110.4
2017-Nov-23 06:59N 37°23' E 002°53'510.5
2017-Nov-23 06:30N 37°18' E 002°55'2710.4
2017-Nov-23 03:53N 36°52' E 003°06'  
2017-Nov-18 11:14N 40°55' E 001°59'710.8
2017-Nov-18 10:36N 41°01' E 002°02'110.8
2017-Nov-18 10:30N 41°02' E 002°03'611.0
2017-Nov-18 10:00N 41°07' E 002°05'12 0.3
2017-Nov-17 00:01N 41°18' E 002°11'0 5.1
2017-Nov-17 00:00N 41°18' E 002°11'0 0.0
2017-Nov-16 07:29N 41°18' E 002°11'3 5.7
2017-Nov-16 06:54N 41°15' E 002°10'3 6.6
2017-Nov-16 06:25N 41°13' E 002°08'4 9.0
2017-Nov-16 06:00N 41°09' E 002°06'5 9.2
2017-Nov-16 05:30N 41°05' E 002°04'5 9.4
2017-Nov-16 04:58N 40°60' E 002°02'7 9.4
2017-Nov-16 04:15N 40°54' E 001°59'  

Dump ship's entire track history